Time;durP1;ratioP1;P1;durP2;ratioP2;P2;SDS_P1;SDS_P2;PMS_P1;PMS_P2;Temp;Humidity;BMP_temperature;BMP_pressure;BME280_temperature;BME280_humidity;BME280_pressure;Samples;Min_cycle;Max_cycle;Signal;HPM_P1;HPM_P2
2021/06/10 00:02:26;;;;;;;3.77;3.37;;;20.00;1.00;;;;;;5070826;28;20559;-67
2021/06/10 00:04:52;;;;;;;3.87;3.27;;;20.00;1.00;;;;;;5071938;28;20437;-66
2021/06/10 00:07:19;;;;;;;3.70;3.40;;;20.00;1.00;;;;;;5068378;28;20503;-67
2021/06/10 00:09:46;;;;;;;3.47;3.00;;;20.90;1.00;;;;;;5071096;28;20211;-66
2021/06/10 00:12:14;;;;;;;4.33;3.27;;;19.90;1.00;;;;;;5072752;28;21046;-68
2021/06/10 00:14:40;;;;;;;4.60;3.57;;;19.90;1.00;;;;;;5071822;28;20446;-68
2021/06/10 00:17:05;;;;;;;4.13;3.53;;;19.90;1.00;;;;;;5072207;28;20438;-68
2021/06/10 00:19:31;;;;;;;3.30;3.00;;;19.80;1.00;;;;;;5070910;28;20199;-67
2021/06/10 00:21:57;;;;;;;3.37;2.90;;;19.70;1.00;;;;;;5069592;28;20194;-68
2021/06/10 00:24:23;;;;;;;4.43;3.73;;;19.70;1.00;;;;;;5070207;28;20187;-68
2021/06/10 00:26:48;;;;;;;3.10;2.80;;;19.70;1.00;;;;;;5071714;28;20239;-68
2021/06/10 00:29:14;;;;;;;3.43;3.23;;;19.80;1.00;;;;;;5072481;28;20249;-69
2021/06/10 00:31:39;;;;;;;3.43;3.13;;;19.70;1.00;;;;;;5070277;28;20179;-69
2021/06/10 00:34:05;;;;;;;3.27;2.97;;;19.60;1.00;;;;;;5066408;28;20191;-70
2021/06/10 00:36:32;;;;;;;3.80;3.27;;;19.40;1.00;;;;;;5071713;28;20430;-69
2021/06/10 00:38:57;;;;;;;9.70;3.13;;;19.50;1.00;;;;;;5073821;28;20434;-68
2021/06/10 00:41:23;;;;;;;3.50;3.20;;;19.50;1.00;;;;;;5070313;28;20450;-69
2021/06/10 00:43:49;;;;;;;4.60;3.27;;;19.50;1.00;;;;;;5059413;28;20192;-69
2021/06/10 00:46:15;;;;;;;3.70;3.40;;;19.50;1.00;;;;;;5070449;28;20204;-68
2021/06/10 00:48:41;;;;;;;4.13;3.77;;;19.60;1.00;;;;;;5071551;28;20554;-68
2021/06/10 00:51:07;;;;;;;4.33;3.30;;;19.40;1.00;;;;;;5071270;28;20453;-69
2021/06/10 00:53:34;;;;;;;4.20;2.87;;;19.30;1.00;;;;;;5071884;28;20262;-69
2021/06/10 00:56:05;;;;;;;4.00;3.63;;;19.30;1.00;;;;;;5070310;28;20442;-69
2021/06/10 00:58:30;;;;;;;4.30;3.90;;;19.30;1.00;;;;;;5070818;28;20469;-68
2021/06/10 01:00:56;;;;;;;3.47;3.20;;;19.30;1.00;;;;;;5068978;28;20447;-69
2021/06/10 01:03:22;;;;;;;3.90;3.60;;;19.20;1.00;;;;;;5074460;28;20175;-69
2021/06/10 01:05:51;;;;;;;3.97;3.67;;;19.20;1.00;;;;;;5067886;28;20249;-68
2021/06/10 01:08:24;;;;;;;3.90;3.60;;;19.20;1.00;;;;;;5070830;28;20264;-68
2021/06/10 01:11:08;;;;;;;3.20;2.80;;;19.20;1.00;;;;;;5069204;28;20445;-69
2021/06/10 01:14:06;;;;;;;3.87;3.67;;;19.00;1.00;;;;;;5071225;28;20434;-70
2021/06/10 01:16:35;;;;;;;3.30;3.10;;;19.20;1.00;;;;;;5043552;28;20962;-69
2021/06/10 01:19:08;;;;;;;3.57;3.20;;;19.00;1.00;;;;;;5069037;28;20795;-70
2021/06/10 01:21:37;;;;;;;3.57;3.07;;;19.00;1.00;;;;;;5070353;28;20450;-70
2021/06/10 01:24:28;;;;;;;5.97;3.63;;;18.90;1.00;;;;;;5070988;28;20445;-70
2021/06/10 01:27:05;;;;;;;5.10;3.47;;;18.90;1.00;;;;;;5071031;28;20842;-68
2021/06/10 01:29:32;;;;;;;3.53;3.23;;;19.00;1.00;;;;;;5070050;28;20461;-69
2021/06/10 01:31:59;;;;;;;3.50;3.20;;;18.90;1.00;;;;;;5065698;28;20446;-68
2021/06/10 01:34:25;;;;;;;3.23;2.93;;;18.90;1.00;;;;;;5070626;28;20480;-68
2021/06/10 01:36:54;;;;;;;3.97;3.57;;;18.90;1.00;;;;;;5069159;28;20922;-69
2021/06/10 01:39:23;;;;;;;4.37;3.53;;;18.80;1.00;;;;;;5070535;28;20446;-67
2021/06/10 01:41:49;;;;;;;3.63;3.33;;;18.80;1.00;;;;;;5071117;28;20484;-69
2021/06/10 01:44:16;;;;;;;4.50;3.47;;;18.80;1.00;;;;;;5068288;28;20457;-69
2021/06/10 01:46:42;;;;;;;3.93;3.53;;;18.70;1.00;;;;;;5068492;28;20446;-69
2021/06/10 01:49:11;;;;;;;3.97;3.57;;;18.80;1.00;;;;;;5107497;27;20914;-69
2021/06/10 01:51:37;;;;;;;3.93;3.63;;;18.70;1.00;;;;;;5069694;28;20441;-68
2021/06/10 01:54:07;;;;;;;3.70;3.40;;;18.70;1.00;;;;;;5070597;28;20422;-69
2021/06/10 01:56:33;;;;;;;4.00;3.67;;;18.80;1.00;;;;;;5070195;28;20970;-69
2021/06/10 01:59:00;;;;;;;4.20;3.50;;;18.60;1.00;;;;;;5069877;28;20569;-68
2021/06/10 02:01:28;;;;;;;3.10;2.80;;;18.60;1.00;;;;;;5068766;28;20458;-68
2021/06/10 02:03:55;;;;;;;3.97;3.67;;;18.60;1.00;;;;;;5069668;28;20453;-68
2021/06/10 02:06:21;;;;;;;4.70;3.60;;;18.50;1.00;;;;;;5070403;28;20938;-68
2021/06/10 02:08:48;;;;;;;3.40;3.03;;;18.40;1.00;;;;;;5070054;28;20816;-68
2021/06/10 02:11:16;;;;;;;3.40;3.20;;;18.40;1.00;;;;;;5068772;28;20484;-71
2021/06/10 02:13:43;;;;;;;3.80;3.37;;;18.40;1.00;;;;;;5077249;28;20441;-69
2021/06/10 02:16:09;;;;;;;3.87;3.57;;;18.30;1.00;;;;;;5070978;28;20541;-70
2021/06/10 02:18:37;;;;;;;4.80;4.30;;;18.40;1.00;;;;;;5073916;28;20444;-70
2021/06/10 02:21:06;;;;;;;3.97;3.67;;;18.40;1.00;;;;;;5074169;28;20239;-69
2021/06/10 02:23:38;;;;;;;4.33;3.90;;;18.40;1.00;;;;;;5067940;28;20441;-70
2021/06/10 02:26:05;;;;;;;3.87;3.57;;;18.30;1.00;;;;;;5070304;28;20437;-70
2021/06/10 02:28:32;;;;;;;4.57;4.10;;;18.30;1.00;;;;;;5067322;28;21009;-70
2021/06/10 02:30:58;;;;;;;4.20;3.90;;;18.20;1.00;;;;;;5067888;28;20449;-70
2021/06/10 02:33:25;;;;;;;4.40;4.00;;;18.20;1.00;;;;;;5069009;28;20453;-70
2021/06/10 02:35:50;;;;;;;4.33;3.90;;;18.20;1.00;;;;;;5079105;28;20470;-69
2021/06/10 02:38:19;;;;;;;4.47;4.07;;;18.20;1.00;;;;;;5068496;28;20784;-69
2021/06/10 02:40:48;;;;;;;5.87;3.60;;;18.20;1.00;;;;;;5066000;28;20730;-68
2021/06/10 02:43:14;;;;;;;4.10;3.77;;;18.20;1.00;;;;;;5065761;28;20457;-69
2021/06/10 02:45:43;;;;;;;4.83;4.20;;;18.10;1.00;;;;;;5069811;28;20529;-70
2021/06/10 02:48:10;;;;;;;4.57;4.17;;;18.20;1.00;;;;;;5059298;28;20484;-69
2021/06/10 02:50:41;;;;;;;5.10;3.93;;;18.10;1.00;;;;;;5068128;28;20441;-70
2021/06/10 02:53:09;;;;;;;6.20;3.73;;;18.10;1.00;;;;;;5073311;28;20525;-69
2021/06/10 02:55:40;;;;;;;3.97;3.67;;;18.10;1.00;;;;;;5070551;28;20787;-70
2021/06/10 02:58:06;;;;;;;3.83;3.53;;;18.10;1.00;;;;;;5065109;28;20445;-69
2021/06/10 03:00:33;;;;;;;4.30;4.00;;;18.00;1.00;;;;;;5067494;28;20437;-70
2021/06/10 03:03:02;;;;;;;4.47;4.10;;;18.00;1.00;;;;;;5069736;28;20449;-68
2021/06/10 03:05:30;;;;;;;4.40;4.00;;;18.00;1.00;;;;;;5066995;28;20476;-69
2021/06/10 03:07:57;;;;;;;4.17;3.83;;;18.00;1.00;;;;;;5069540;28;20456;-68
2021/06/10 03:10:33;;;;;;;3.87;3.47;;;18.00;1.00;;;;;;5076039;28;20531;-68
2021/06/10 03:13:02;;;;;;;3.93;3.63;;;18.00;1.00;;;;;;5070113;28;20784;-69
2021/06/10 03:15:30;;;;;;;4.13;3.60;;;18.00;1.00;;;;;;5050800;28;20437;-69
2021/06/10 03:17:57;;;;;;;4.27;3.87;;;18.00;1.00;;;;;;5071734;28;20501;-69
2021/06/10 03:20:23;;;;;;;4.37;3.93;;;18.10;1.00;;;;;;5069834;28;20444;-69
2021/06/10 03:22:49;;;;;;;4.27;3.87;;;18.10;1.00;;;;;;5071046;28;20446;-69
2021/06/10 03:25:14;;;;;;;3.90;3.60;;;19.60;1.00;;;;;;5069200;28;20452;-70
2021/06/10 03:27:41;;;;;;;4.13;3.80;;;18.10;1.00;;;;;;5070468;28;20647;-69
2021/06/10 03:30:08;;;;;;;5.43;4.03;;;18.20;1.00;;;;;;5072873;28;20233;-69
2021/06/10 03:32:34;;;;;;;4.60;4.17;;;18.30;1.00;;;;;;5071418;28;20895;-70
2021/06/10 03:35:01;;;;;;;4.40;3.90;;;18.30;1.00;;;;;;5073274;28;20458;-69
2021/06/10 03:37:27;;;;;;;4.20;3.63;;;18.40;1.00;;;;;;5072443;28;20441;-69
2021/06/10 03:39:54;;;;;;;5.47;4.20;;;18.60;1.00;;;;;;5073171;28;20532;-70
2021/06/10 03:42:21;;;;;;;4.33;3.93;;;18.70;1.00;;;;;;5066379;28;20521;-71
2021/06/10 03:44:48;;;;;;;4.33;3.93;;;18.80;1.00;;;;;;5072426;28;20518;-70
2021/06/10 03:47:17;;;;;;;5.00;4.60;;;18.90;1.00;;;;;;5073977;28;20433;-70
2021/06/10 03:49:43;;;;;;;4.37;4.03;;;18.90;1.00;;;;;;5072373;28;20461;-68
2021/06/10 03:52:09;;;;;;;4.83;4.43;;;19.00;1.00;;;;;;5072881;28;20935;-70
2021/06/10 03:54:35;;;;;;;5.23;4.40;;;19.10;1.00;;;;;;5069843;28;20532;-70
2021/06/10 03:57:01;;;;;;;4.47;3.93;;;19.00;1.00;;;;;;5072449;28;20182;-69
2021/06/10 03:59:26;;;;;;;9.03;4.47;;;18.90;1.00;;;;;;5071324;28;20659;-71
2021/06/10 04:01:52;;;;;;;5.27;4.87;;;18.80;1.00;;;;;;5070601;28;20534;-70
2021/06/10 04:04:18;;;;;;;5.30;4.80;;;18.80;1.00;;;;;;5072750;28;20183;-70
2021/06/10 04:06:44;;;;;;;5.40;4.80;;;18.80;1.00;;;;;;5071471;28;20191;-69
2021/06/10 04:09:10;;;;;;;4.90;4.30;;;18.80;1.00;;;;;;5080325;28;21249;-70
2021/06/10 04:11:37;;;;;;;4.80;4.40;;;18.70;1.00;;;;;;5072018;28;20187;-70
2021/06/10 04:14:04;;;;;;;9.97;5.80;;;18.80;1.00;;;;;;5072376;28;20179;-68
2021/06/10 04:16:30;;;;;;;5.17;4.67;;;18.80;1.00;;;;;;5069254;28;20449;-69
2021/06/10 04:18:56;;;;;;;4.93;4.37;;;18.80;1.00;;;;;;5077766;28;20865;-69
2021/06/10 04:21:22;;;;;;;4.70;4.30;;;18.70;1.00;;;;;;5073987;28;20469;-69
2021/06/10 04:23:48;;;;;;;4.53;4.23;;;18.70;1.00;;;;;;5072462;28;20175;-69
2021/06/10 04:26:14;;;;;;;5.13;4.63;;;18.70;1.00;;;;;;5070139;28;20460;-70
2021/06/10 04:28:40;;;;;;;7.60;4.97;;;18.60;1.00;;;;;;5077018;28;20461;-69
2021/06/10 04:31:06;;;;;;;5.00;4.60;;;18.70;1.00;;;;;;5077742;28;20430;-68
2021/06/10 04:33:31;;;;;;;4.40;4.07;;;18.90;1.00;;;;;;5068132;28;20246;-68
2021/06/10 04:35:57;;;;;;;5.03;3.40;;;18.90;1.00;;;;;;5071597;28;20175;-68
2021/06/10 04:38:22;;;;;;;4.67;4.27;;;19.00;1.00;;;;;;5071524;28;20212;-68
2021/06/10 04:40:48;;;;;;;4.70;4.30;;;19.00;1.00;;;;;;5071378;28;20206;-68
2021/06/10 04:43:14;;;;;;;5.30;4.90;;;19.10;1.00;;;;;;5084071;28;20179;-68
2021/06/10 04:45:39;;;;;;;4.73;4.33;;;19.30;1.00;;;;;;5075515;28;20248;-68
2021/06/10 04:48:06;;;;;;;4.80;4.37;;;19.50;1.00;;;;;;5071826;28;20317;-69
2021/06/10 04:50:33;;;;;;;5.20;4.43;;;19.70;1.00;;;;;;5062888;28;20645;-69
2021/06/10 04:52:58;;;;;;;4.30;3.90;;;19.90;1.00;;;;;;5065256;28;20950;-70
2021/06/10 04:55:24;;;;;;;4.33;4.03;;;19.90;1.00;;;;;;5068487;28;20491;-68
2021/06/10 04:57:50;;;;;;;8.30;4.37;;;20.00;1.00;;;;;;5069386;28;20214;-71
2021/06/10 05:00:16;;;;;;;4.87;4.43;;;20.00;1.00;;;;;;5071256;28;20180;-69
2021/06/10 05:02:41;;;;;;;4.77;4.33;;;20.20;1.00;;;;;;5067370;28;20648;-69
2021/06/10 05:05:08;;;;;;;6.67;4.40;;;20.30;1.00;;;;;;5070944;28;20574;-69
2021/06/10 05:07:34;;;;;;;5.10;4.70;;;20.40;1.00;;;;;;5071215;28;20187;-68
2021/06/10 05:10:00;;;;;;;5.00;4.60;;;20.60;1.00;;;;;;5069343;28;20453;-68
2021/06/10 05:12:26;;;;;;;5.73;5.10;;;20.60;1.00;;;;;;5066225;28;20961;-68
2021/06/10 05:14:51;;;;;;;5.20;4.80;;;20.60;1.00;;;;;;5069230;28;20442;-69
2021/06/10 05:17:18;;;;;;;5.20;4.70;;;20.50;1.00;;;;;;5070974;28;20656;-69
2021/06/10 05:19:43;;;;;;;11.37;5.20;;;20.50;1.00;;;;;;5070667;28;20191;-69
2021/06/10 05:22:09;;;;;;;8.83;5.70;;;20.40;1.00;;;;;;5070781;28;20433;-69
2021/06/10 05:24:35;;;;;;;8.37;5.53;;;20.50;1.00;;;;;;5068963;28;20210;-70
2021/06/10 05:27:00;;;;;;;8.23;4.87;;;20.50;1.00;;;;;;5068485;28;20215;-69
2021/06/10 05:29:26;;;;;;;7.53;4.90;;;20.50;1.00;;;;;;5069257;28;20217;-69
2021/06/10 05:31:52;;;;;;;5.77;5.03;;;20.70;1.00;;;;;;5065187;28;20521;-70
2021/06/10 05:34:17;;;;;;;5.63;4.83;;;20.80;1.00;;;;;;5070398;28;20180;-70
2021/06/10 05:36:43;;;;;;;5.10;4.67;;;21.00;1.00;;;;;;5076478;28;20473;-70
2021/06/10 05:39:09;;;;;;;5.90;4.80;;;21.10;1.00;;;;;;5070255;28;20230;-70
2021/06/10 05:41:35;;;;;;;4.60;4.13;;;21.20;1.00;;;;;;5069628;28;20261;-69
2021/06/10 05:44:00;;;;;;;10.03;5.37;;;21.30;1.00;;;;;;5067941;28;20576;-69
2021/06/10 05:46:26;;;;;;;4.57;4.27;;;21.50;1.00;;;;;;5067988;28;20195;-69
2021/06/10 05:48:51;;;;;;;7.50;5.10;;;21.50;1.00;;;;;;5065606;28;20203;-69
2021/06/10 05:51:17;;;;;;;5.60;5.10;;;21.50;1.00;;;;;;5069396;28;20187;-69
2021/06/10 05:53:43;;;;;;;8.50;4.97;;;21.70;1.00;;;;;;5070201;28;20183;-68
2021/06/10 05:56:08;;;;;;;5.70;5.00;;;21.90;1.00;;;;;;5071346;28;20184;-69
2021/06/10 05:58:34;;;;;;;5.93;4.63;;;22.20;1.00;;;;;;5069178;28;20199;-67
2021/06/10 06:01:00;;;;;;;5.80;4.73;;;22.40;1.00;;;;;;5068914;28;20187;-66
2021/06/10 06:03:30;;;;;;;7.17;5.13;;;22.60;1.00;;;;;;5068231;28;20191;-68
2021/06/10 06:05:56;;;;;;;6.40;4.80;;;22.90;1.00;;;;;;5069851;28;20931;-68
2021/06/10 06:08:22;;;;;;;5.97;5.37;;;23.00;1.00;;;;;;5069303;28;21028;-68
2021/06/10 06:10:51;;;;;;;5.50;5.00;;;23.00;1.00;;;;;;5069760;28;20469;-67
2021/06/10 06:13:21;;;;;;;5.50;5.00;;;23.10;1.00;;;;;;5069523;28;20177;-67
2021/06/10 06:15:47;;;;;;;5.70;5.20;;;23.10;1.00;;;;;;5068276;28;20448;-66
2021/06/10 06:18:13;;;;;;;7.17;4.97;;;23.30;1.00;;;;;;5097987;28;20674;-67
2021/06/10 06:20:38;;;;;;;6.37;5.00;;;26.10;1.00;;;;;;5068968;28;20453;-64
2021/06/10 06:23:04;;;;;;;6.70;5.30;;;23.70;1.00;;;;;;5069108;28;20274;-66
2021/06/10 06:25:29;;;;;;;5.10;4.70;;;23.60;1.00;;;;;;5068894;28;20175;-66
2021/06/10 06:27:55;;;;;;;5.80;5.17;;;23.50;1.00;;;;;;5068369;28;20250;-65
2021/06/10 06:30:21;;;;;;;5.03;4.53;;;23.50;1.00;;;;;;5066486;28;20249;-64
2021/06/10 06:32:46;;;;;;;8.30;4.60;;;23.40;1.00;;;;;;5070367;28;20187;-62
2021/06/10 06:35:12;;;;;;;6.10;4.83;;;23.50;1.00;;;;;;5074433;28;20521;-62
2021/06/10 06:37:38;;;;;;;6.50;4.97;;;23.40;1.00;;;;;;5068252;28;20314;-63
2021/06/10 06:40:05;;;;;;;5.97;5.03;;;23.30;1.00;;;;;;5069820;28;20771;-62
2021/06/10 06:42:32;;;;;;;5.27;4.67;;;23.10;1.00;;;;;;5067227;28;20281;-63
2021/06/10 06:44:58;;;;;;;5.30;4.80;;;22.90;1.00;;;;;;5067742;28;20477;-64
2021/06/10 06:47:24;;;;;;;5.67;4.57;;;22.90;1.00;;;;;;5068510;28;20798;-62
2021/06/10 06:49:49;;;;;;;5.60;5.10;;;22.90;1.00;;;;;;5066569;28;20466;-62
2021/06/10 06:52:15;;;;;;;5.00;4.50;;;22.90;1.00;;;;;;5069632;28;20191;-63
2021/06/10 06:54:40;;;;;;;5.73;5.13;;;23.20;1.00;;;;;;5068430;28;20728;-63
2021/06/10 06:57:06;;;;;;;5.33;4.80;;;23.40;1.00;;;;;;5071562;28;20183;-63
2021/06/10 06:59:32;;;;;;;8.10;6.07;;;23.60;1.00;;;;;;5072954;28;20497;-62
2021/06/10 07:01:58;;;;;;;6.87;5.00;;;23.80;1.00;;;;;;5073148;28;20215;-63
2021/06/10 07:04:25;;;;;;;8.27;5.47;;;24.00;1.00;;;;;;5072839;28;20586;-62
2021/06/10 07:06:52;;;;;;;7.50;4.50;;;24.30;1.00;;;;;;5073355;28;20538;-62
2021/06/10 07:09:17;;;;;;;7.23;5.60;;;24.50;1.00;;;;;;5072744;28;20468;-63
2021/06/10 07:11:43;;;;;;;9.33;5.07;;;24.60;1.00;;;;;;5072091;28;20437;-63
2021/06/10 07:14:09;;;;;;;6.43;5.50;;;24.70;1.00;;;;;;5072834;28;20183;-63
2021/06/10 07:16:35;;;;;;;7.60;5.43;;;24.90;1.00;;;;;;5071057;28;20171;-62
2021/06/10 07:19:01;;;;;;;5.97;5.47;;;25.10;1.00;;;;;;5076084;28;20472;-62
2021/06/10 07:21:39;;;;;;;9.47;5.67;;;25.30;1.00;;;;;;5073036;28;20926;-62
2021/06/10 07:24:05;;;;;;;5.77;5.10;;;25.20;1.00;;;;;;5072992;28;20273;-62
2021/06/10 07:26:31;;;;;;;6.63;6.00;;;25.20;1.00;;;;;;5072706;28;20540;-62
2021/06/10 07:28:56;;;;;;;5.10;4.63;;;25.40;1.00;;;;;;5072842;28;20211;-63
2021/06/10 07:31:22;;;;;;;7.23;5.40;;;25.80;1.00;;;;;;5073692;28;20717;-63
2021/06/10 07:33:47;;;;;;;5.93;5.40;;;26.00;1.00;;;;;;5081962;28;20195;-63
2021/06/10 07:36:13;;;;;;;6.20;5.60;;;26.50;1.00;;;;;;5072527;28;20183;-62
2021/06/10 07:38:38;;;;;;;7.90;5.27;;;26.70;1.00;;;;;;5074232;28;20191;-62
2021/06/10 07:41:04;;;;;;;10.30;5.70;;;26.90;1.00;;;;;;5074209;28;20190;-67
2021/06/10 07:43:29;;;;;;;6.30;5.70;;;26.90;1.00;;;;;;5075937;28;20183;-67
2021/06/10 07:45:55;;;;;;;14.63;6.63;;;26.90;1.00;;;;;;5070989;28;20189;-66
2021/06/10 07:48:20;;;;;;;6.77;6.07;;;26.60;1.00;;;;;;5072127;28;20195;-67
2021/06/10 07:50:46;;;;;;;8.30;6.30;;;26.70;1.00;;;;;;5072191;28;20241;-66
2021/06/10 07:53:11;;;;;;;12.30;6.37;;;26.60;1.00;;;;;;5087452;28;20179;-66
2021/06/10 07:55:37;;;;;;;9.57;6.20;;;26.50;1.00;;;;;;5072550;28;20179;-66
2021/06/10 07:58:03;;;;;;;9.37;6.23;;;26.20;1.00;;;;;;5071788;28;20525;-65
2021/06/10 08:00:28;;;;;;;6.87;6.17;;;26.00;1.00;;;;;;5072188;28;20176;-65
2021/06/10 08:02:58;;;;;;;11.13;6.77;;;25.80;1.00;;;;;;5071729;28;20624;-66
2021/06/10 08:05:24;;;;;;;10.27;6.60;;;25.60;1.00;;;;;;5071722;28;20225;-66
2021/06/10 08:07:49;;;;;;;12.33;7.93;;;25.20;1.00;;;;;;5070258;28;20499;-65
2021/06/10 08:10:15;;;;;;;7.73;6.90;;;25.20;1.00;;;;;;5069584;28;20465;-65
2021/06/10 08:12:41;;;;;;;8.57;7.40;;;25.10;1.00;;;;;;5068615;28;20598;-65
2021/06/10 08:15:07;;;;;;;11.50;7.93;;;24.90;1.00;;;;;;5072020;28;20180;-64
2021/06/10 08:17:35;;;;;;;11.90;7.40;;;25.00;1.00;;;;;;5072096;28;20176;-66
2021/06/10 08:20:03;;;;;;;8.53;7.80;;;24.90;1.00;;;;;;5072344;28;20441;-64
2021/06/10 08:22:28;;;;;;;13.63;8.60;;;25.00;1.00;;;;;;5071044;28;20433;-66
2021/06/10 08:24:54;;;;;;;14.37;8.50;;;24.90;1.00;;;;;;5071226;28;20473;-67
2021/06/10 08:27:20;;;;;;;17.40;8.10;;;25.00;1.00;;;;;;5071611;28;20245;-66
2021/06/10 08:29:45;;;;;;;9.90;8.90;;;25.00;1.00;;;;;;5071289;28;20226;-65
2021/06/10 08:32:11;;;;;;;8.93;7.97;;;25.00;1.00;;;;;;5071488;28;20214;-65
2021/06/10 08:34:36;;;;;;;10.80;8.43;;;25.30;1.00;;;;;;5069879;28;20179;-65
2021/06/10 08:37:02;;;;;;;10.97;8.67;;;25.50;1.00;;;;;;5072095;28;20176;-65
2021/06/10 08:39:28;;;;;;;9.00;8.10;;;25.40;1.00;;;;;;5072153;28;20273;-65
2021/06/10 08:41:55;;;;;;;10.30;9.30;;;25.40;1.00;;;;;;5072138;28;20180;-66
2021/06/10 08:44:22;;;;;;;10.83;8.40;;;25.70;1.00;;;;;;5071799;28;20441;-66
2021/06/10 08:46:49;;;;;;;9.70;8.80;;;25.90;1.00;;;;;;5071521;28;20798;-65
2021/06/10 08:49:15;;;;;;;12.00;9.77;;;26.20;1.00;;;;;;5071620;28;20858;-65
2021/06/10 08:51:41;;;;;;;11.33;10.37;;;26.40;1.00;;;;;;5071618;28;20496;-66
2021/06/10 08:54:06;;;;;;;11.67;9.63;;;26.50;1.00;;;;;;5070076;28;20639;-65
2021/06/10 08:56:33;;;;;;;10.47;9.50;;;26.40;1.00;;;;;;5070118;28;20175;-64
2021/06/10 08:59:00;;;;;;;10.77;9.60;;;26.50;1.00;;;;;;5071125;28;20182;-65
2021/06/10 09:01:29;;;;;;;11.43;9.53;;;26.40;1.00;;;;;;5071297;28;20449;-63
2021/06/10 09:03:54;;;;;;;10.00;9.20;;;26.60;1.00;;;;;;5069594;28;20481;-65
2021/06/10 09:06:20;;;;;;;9.80;8.90;;;26.80;1.00;;;;;;5070586;28;20476;-62
2021/06/10 09:08:55;;;;;;;8.93;8.23;;;27.20;1.00;;;;;;5068244;28;20222;-63
2021/06/10 09:11:23;;;;;;;11.63;9.93;;;27.70;1.00;;;;;;5076372;28;20267;-64
2021/06/10 09:13:59;;;;;;;10.50;9.00;;;27.70;1.00;;;;;;5069807;28;20532;-62
2021/06/10 09:16:34;;;;;;;9.77;8.87;;;27.80;1.00;;;;;;5069483;28;20449;-62
2021/06/10 09:19:03;;;;;;;9.70;8.67;;;28.10;1.00;;;;;;5071097;28;20460;-64
2021/06/10 09:21:32;;;;;;;9.77;8.83;;;28.10;1.00;;;;;;5071072;28;20450;-64
2021/06/10 09:24:23;;;;;;;11.97;10.97;;;28.10;1.00;;;;;;5071086;28;20452;-63
2021/06/10 09:27:06;;;;;;;9.90;9.10;;;28.30;1.00;;;;;;5070173;28;20462;-63
2021/06/10 09:29:40;;;;;;;10.80;9.63;;;28.10;1.00;;;;;;5069724;28;20996;-62
2021/06/10 09:32:10;;;;;;;12.10;11.10;;;28.30;1.00;;;;;;5068779;28;20450;-62
2021/06/10 09:34:50;;;;;;;14.00;10.10;;;28.80;1.00;;;;;;5069586;28;20453;-62
2021/06/10 09:37:23;;;;;;;11.47;10.47;;;29.10;1.00;;;;;;5070136;28;20444;-63
2021/06/10 09:39:54;;;;;;;10.73;9.63;;;29.30;1.00;;;;;;5069957;28;20795;-63
2021/06/10 09:42:29;;;;;;;11.60;10.53;;;29.10;1.00;;;;;;5070233;28;20433;-63
2021/06/10 09:45:00;;;;;;;10.63;9.83;;;28.90;1.00;;;;;;5070110;28;20433;-62
2021/06/10 09:47:36;;;;;;;10.87;9.80;;;28.70;1.00;;;;;;5070421;28;20450;-63
2021/06/10 09:50:18;;;;;;;11.27;10.37;;;28.60;1.00;;;;;;5069396;28;20456;-63
2021/06/10 09:53:09;;;;;;;10.93;9.83;;;28.70;1.00;;;;;;5070558;28;20441;-62
2021/06/10 09:55:51;;;;;;;11.40;10.50;;;28.90;1.00;;;;;;5070651;28;20442;-62
2021/06/10 09:58:17;;;;;;;11.43;10.60;;;29.00;1.00;;;;;;5070466;28;20540;-63
2021/06/10 10:00:45;;;;;;;11.53;10.63;;;29.20;1.00;;;;;;5070776;28;20429;-63
2021/06/10 10:03:28;;;;;;;11.20;10.30;;;29.40;1.00;;;;;;5070567;28;20184;-62
2021/06/10 10:06:06;;;;;;;11.27;10.40;;;29.10;1.00;;;;;;5069391;28;20477;-63
2021/06/10 10:08:34;;;;;;;12.20;11.10;;;28.90;1.00;;;;;;5070607;28;20486;-64
2021/06/10 10:11:03;;;;;;;13.03;11.93;;;28.90;1.00;;;;;;5070930;28;20906;-62
2021/06/10 10:13:30;;;;;;;12.80;11.70;;;28.20;1.00;;;;;;5070628;28;20799;-63
2021/06/10 10:16:00;;;;;;;12.17;11.27;;;27.90;1.00;;;;;;5070895;28;21027;-62
2021/06/10 10:18:26;;;;;;;11.60;10.70;;;27.50;1.00;;;;;;5070424;28;20490;-64
2021/06/10 10:20:52;;;;;;;12.83;11.73;;;27.30;1.00;;;;;;5070530;28;20524;-63
2021/06/10 10:23:17;;;;;;;11.60;10.70;;;26.90;1.00;;;;;;5070145;28;20184;-63
2021/06/10 10:25:43;;;;;;;12.07;11.03;;;26.60;1.00;;;;;;5070527;28;20506;-63
2021/06/10 10:28:16;;;;;;;12.47;11.43;;;26.50;1.00;;;;;;5070338;28;20203;-63
2021/06/10 10:30:44;;;;;;;11.90;10.80;;;26.50;1.00;;;;;;5068601;28;20580;-63
2021/06/10 10:33:28;;;;;;;10.20;6.60;;;26.30;1.00;;;;;;5068113;28;20487;-64
2021/06/10 10:36:00;;;;;;;13.20;8.73;;;24.60;1.00;;;;;;5069703;28;20437;-64
2021/06/10 10:38:39;;;;;;;7.03;6.33;;;23.60;1.00;;;;;;5070372;28;20512;-63
2021/06/10 10:41:11;;;;;;;7.97;7.17;;;22.90;1.00;;;;;;5070258;28;20507;-63
2021/06/10 10:43:38;;;;;;;8.70;6.30;;;22.40;1.00;;;;;;5070039;28;20473;-64
2021/06/10 10:46:12;;;;;;;6.73;6.20;;;22.10;1.00;;;;;;5070496;28;20825;-63
2021/06/10 10:48:42;;;;;;;7.70;5.40;;;21.80;1.00;;;;;;5069913;28;20819;-62
2021/06/10 10:51:24;;;;;;;9.00;6.90;;;21.40;1.00;;;;;;5070118;28;20445;-62
2021/06/10 10:53:55;;;;;;;8.63;7.73;;;21.10;1.00;;;;;;5081371;28;20960;-63
2021/06/10 10:56:38;;;;;;;9.57;8.57;;;20.60;1.00;;;;;;5089871;28;20451;-64
2021/06/10 10:59:12;;;;;;;9.37;8.00;;;19.90;1.00;;;;;;5078899;28;20445;-63
2021/06/10 11:01:38;;;;;;;10.13;9.13;;;19.50;1.00;;;;;;5069406;28;20444;-63
2021/06/10 11:04:04;;;;;;;10.63;8.23;;;19.40;1.00;;;;;;5069701;28;20429;-59
2021/06/10 11:06:30;;;;;;;8.07;7.27;;;19.40;1.00;;;;;;5069431;28;20441;-60
2021/06/10 11:09:16;;;;;;;10.40;8.53;;;19.50;1.00;;;;;;5089488;28;20202;-60
2021/06/10 11:11:56;;;;;;;12.30;7.83;;;19.80;1.00;;;;;;5089539;28;20523;-59
2021/06/10 11:14:54;;;;;;;7.17;6.57;;;20.10;1.00;;;;;;5089867;28;20443;-59
2021/06/10 11:17:23;;;;;;;8.07;7.10;;;20.30;1.00;;;;;;5078589;28;20468;-59
2021/06/10 11:20:07;;;;;;;8.17;7.33;;;20.70;1.00;;;;;;5069576;28;20433;-59
2021/06/10 11:22:34;;;;;;;8.80;8.03;;;20.90;1.00;;;;;;5069949;28;20452;-59
2021/06/10 11:25:02;;;;;;;14.80;7.97;;;21.20;1.00;;;;;;5069701;28;20959;-59
2021/06/10 11:27:33;;;;;;;9.07;7.70;;;21.80;1.00;;;;;;5069423;28;20549;-60
2021/06/10 11:30:17;;;;;;;7.60;6.10;;;22.40;1.00;;;;;;5069707;28;20497;-60
2021/06/10 11:33:10;;;;;;;7.10;6.50;;;23.20;1.00;;;;;;5069467;28;20429;-60
2021/06/10 11:35:40;;;;;;;5.90;5.40;;;23.80;1.00;;;;;;5064692;28;20430;-60
2021/06/10 11:38:17;;;;;;;6.83;5.90;;;24.30;1.00;;;;;;5069532;28;20498;-59
2021/06/10 11:40:46;;;;;;;6.90;6.20;;;24.90;1.00;;;;;;5069498;28;20433;-60
2021/06/10 11:43:13;;;;;;;6.40;5.80;;;25.40;1.00;;;;;;5068636;28;20434;-60
2021/06/10 11:45:39;;;;;;;5.90;5.40;;;25.90;1.00;;;;;;5071358;28;20437;-61
2021/06/10 11:48:06;;;;;;;6.30;5.70;;;26.40;1.00;;;;;;5070798;28;20436;-62
2021/06/10 11:50:35;;;;;;;5.70;5.23;;;26.60;1.00;;;;;;5078983;28;20539;-61
2021/06/10 11:53:06;;;;;;;7.00;6.30;;;26.70;1.00;;;;;;5072461;28;21126;-62
2021/06/10 11:55:33;;;;;;;6.20;5.70;;;26.70;1.00;;;;;;5072650;28;20936;-60
2021/06/10 11:58:07;;;;;;;5.70;5.20;;;26.90;1.00;;;;;;5072616;28;20464;-59
2021/06/10 12:00:40;;;;;;;9.60;5.70;;;26.90;1.00;;;;;;5072223;28;20541;-60
2021/06/10 12:03:07;;;;;;;6.30;5.00;;;27.00;1.00;;;;;;5072691;28;20908;-60
2021/06/10 12:05:36;;;;;;;6.00;5.40;;;27.20;1.00;;;;;;5071662;28;20434;-59
2021/06/10 12:08:06;;;;;;;5.90;5.50;;;27.40;1.00;;;;;;5072804;28;20437;-59
2021/06/10 12:10:32;;;;;;;5.47;5.00;;;27.50;1.00;;;;;;5087248;28;20467;-58
2021/06/10 12:12:58;;;;;;;5.57;5.07;;;27.50;1.00;;;;;;5074617;28;20994;-58
2021/06/10 12:15:24;;;;;;;4.93;4.63;;;27.40;1.00;;;;;;5072524;28;20180;-59
2021/06/10 12:17:58;;;;;;;5.10;4.67;;;27.30;1.00;;;;;;5072713;28;20588;-59
2021/06/10 12:20:29;;;;;;;4.80;4.50;;;27.10;1.00;;;;;;5070874;28;20445;-57
2021/06/10 12:22:55;;;;;;;6.13;5.63;;;27.10;1.00;;;;;;5070938;28;20437;-58
2021/06/10 12:25:26;;;;;;;5.63;5.10;;;27.00;1.00;;;;;;5072401;28;20430;-57
2021/06/10 12:27:53;;;;;;;6.07;5.50;;;26.90;1.00;;;;;;5072558;28;20624;-59
2021/06/10 12:30:22;;;;;;;6.60;4.93;;;26.70;1.00;;;;;;5071596;28;20469;-58
2021/06/10 12:32:48;;;;;;;5.10;4.70;;;26.70;1.00;;;;;;5072122;28;20441;-59
2021/06/10 12:35:17;;;;;;;5.37;5.00;;;26.70;1.00;;;;;;5075341;28;20797;-57
2021/06/10 12:37:42;;;;;;;5.90;4.80;;;26.90;1.00;;;;;;5090895;28;20906;-58
2021/06/10 12:40:08;;;;;;;4.63;4.13;;;26.90;1.00;;;;;;5085820;28;20441;-60
2021/06/10 12:42:34;;;;;;;5.70;5.20;;;26.80;1.00;;;;;;5072638;28;20184;-58
2021/06/10 12:45:01;;;;;;;5.20;4.80;;;26.80;1.00;;;;;;5072494;28;20433;-58
2021/06/10 12:47:31;;;;;;;7.63;5.10;;;26.80;1.00;;;;;;5072264;28;20621;-58
2021/06/10 12:49:57;;;;;;;5.57;5.07;;;26.90;1.00;;;;;;5070927;28;20551;-59
2021/06/10 12:52:25;;;;;;;5.50;5.10;;;26.70;1.00;;;;;;5071537;28;20528;-59
2021/06/10 12:55:00;;;;;;;6.23;5.00;;;26.80;1.00;;;;;;5071012;28;20176;-58
2021/06/10 12:57:28;;;;;;;5.83;5.23;;;26.90;1.00;;;;;;5071508;28;20429;-59
2021/06/10 13:00:06;;;;;;;5.40;5.00;;;26.90;1.00;;;;;;5071023;28;20446;-58
2021/06/10 13:02:33;;;;;;;7.00;6.40;;;27.00;1.00;;;;;;5071212;28;20465;-59